Time;durP1;ratioP1;P1;durP2;ratioP2;P2;SDS_P1;SDS_P2;PMS_P1;PMS_P2;Temp;Humidity;BMP_temperature;BMP_pressure;BME280_temperature;BME280_humidity;BME280_pressure;Samples;Min_cycle;Max_cycle;Signal;HPM_P1;HPM_P2
2022/06/28 00:00:30;;;;;;;14.02;12.45;;;;;;;;;;5113363;28;20089;-72
2022/06/28 00:02:56;;;;;;;14.23;12.20;;;;;;;;;;5111672;28;20039;-71
2022/06/28 00:05:23;;;;;;;15.55;13.00;;;;;;;;;;5088896;28;20055;-71
2022/06/28 00:07:49;;;;;;;13.75;12.27;;;;;;;;;;5110676;28;20127;-71
2022/06/28 00:10:15;;;;;;;13.65;12.20;;;;;;;;;;5104485;28;20032;-71
2022/06/28 00:12:42;;;;;;;14.00;12.48;;;;;;;;;;5105480;28;20040;-71
2022/06/28 00:17:54;;;;;;;12.45;10.98;;;;;;;;;;5106781;28;20051;-71
2022/06/28 00:20:20;;;;;;;14.23;12.73;;;;;;;;;;5088091;28;20052;-71
2022/06/28 00:22:46;;;;;;;14.15;11.90;;;;;;;;;;5086809;28;20040;-72
2022/06/28 00:25:12;;;;;;;13.68;12.27;;;;;;;;;;5106288;28;20043;-72
2022/06/28 00:27:39;;;;;;;15.77;11.38;;;;;;;;;;5105262;28;20054;-73
2022/06/28 00:30:05;;;;;;;16.33;11.07;;;;;;;;;;5107377;28;20081;-72
2022/06/28 00:32:32;;;;;;;12.75;11.40;;;;;;;;;;5105483;28;20063;-72
2022/06/28 00:34:58;;;;;;;12.52;11.23;;;;;;;;;;5111455;28;20485;-72
2022/06/28 00:37:24;;;;;;;12.82;9.77;;;;;;;;;;5113245;28;20050;-72
2022/06/28 00:39:50;;;;;;;18.13;10.82;;;;;;;;;;5111255;27;20402;-72
2022/06/28 00:42:16;;;;;;;12.38;10.55;;;;;;;;;;5113377;28;20055;-72
2022/06/28 00:44:43;;;;;;;13.07;10.38;;;;;;;;;;5114142;28;20036;-71
2022/06/28 00:47:09;;;;;;;14.52;11.70;;;;;;;;;;5111773;28;20043;-72
2022/06/28 00:49:39;;;;;;;13.25;10.13;;;;;;;;;;5113790;28;20074;-72
2022/06/28 00:52:05;;;;;;;16.02;11.27;;;;;;;;;;5111323;28;20039;-72
2022/06/28 00:54:32;;;;;;;13.38;11.35;;;;;;;;;;5113662;28;20040;-72
2022/06/28 00:56:58;;;;;;;15.05;12.20;;;;;;;;;;5093414;28;20116;-71
2022/06/28 00:59:24;;;;;;;14.85;12.27;;;;;;;;;;5112166;28;20486;-71
2022/06/28 01:01:50;;;;;;;14.32;12.02;;;;;;;;;;5111955;28;20405;-71
2022/06/28 01:04:16;;;;;;;12.65;11.35;;;;;;;;;;5095488;28;20047;-71
2022/06/28 01:06:42;;;;;;;14.75;11.60;;;;;;;;;;5111055;28;20481;-71
2022/06/28 01:09:09;;;;;;;16.40;11.80;;;;;;;;;;5105932;28;20035;-71
2022/06/28 01:11:35;;;;;;;14.20;10.50;;;;;;;;;;5083078;28;20034;-71
2022/06/28 01:14:07;;;;;;;15.70;13.10;;;;;;;;;;5072920;28;20055;-71
2022/06/28 01:16:33;;;;;;;15.90;12.52;;;;;;;;;;5113066;28;20491;-71
2022/06/28 01:18:59;;;;;;;15.80;12.23;;;;;;;;;;5096037;28;20736;-71
2022/06/28 01:21:27;;;;;;;14.32;12.77;;;;;;;;;;5111962;28;20095;-72
2022/06/28 01:23:54;;;;;;;14.45;12.90;;;;;;;;;;5112029;28;20052;-71
2022/06/28 01:26:20;;;;;;;15.35;11.57;;;;;;;;;;5110678;28;20118;-72
2022/06/28 01:28:47;;;;;;;14.15;12.75;;;;;;;;;;5113593;28;20490;-72
2022/06/28 01:31:13;;;;;;;15.10;13.23;;;;;;;;;;5108423;28;20047;-72
2022/06/28 01:33:40;;;;;;;15.40;13.35;;;;;;;;;;5112927;28;20081;-71
2022/06/28 01:36:07;;;;;;;16.60;12.82;;;;;;;;;;5109045;28;20078;-71
2022/06/28 01:38:34;;;;;;;15.10;13.23;;;;;;;;;;5105245;28;20041;-72
2022/06/28 01:41:01;;;;;;;15.35;13.80;;;;;;;;;;5112557;28;20039;-71
2022/06/28 01:43:27;;;;;;;15.82;13.23;;;;;;;;;;5110702;28;20122;-71
2022/06/28 01:45:54;;;;;;;15.00;13.48;;;;;;;;;;5112216;28;20040;-71
2022/06/28 01:48:20;;;;;;;14.82;13.27;;;;;;;;;;5113213;28;20055;-72
2022/06/28 01:50:47;;;;;;;15.70;13.43;;;;;;;;;;5112659;28;20069;-72
2022/06/28 01:53:13;;;;;;;13.27;11.55;;;;;;;;;;5111389;28;20040;-72
2022/06/28 01:55:39;;;;;;;18.10;14.88;;;;;;;;;;5110378;28;20077;-72
2022/06/28 01:58:06;;;;;;;17.30;14.40;;;;;;;;;;5110221;28;20079;-72
2022/06/28 02:00:32;;;;;;;18.88;14.27;;;;;;;;;;5112592;28;20097;-72
2022/06/28 02:02:58;;;;;;;16.48;14.77;;;;;;;;;;5112489;28;20054;-72
2022/06/28 02:05:25;;;;;;;21.45;14.88;;;;;;;;;;5108894;28;20043;-72
2022/06/28 02:07:51;;;;;;;17.02;14.10;;;;;;;;;;5111399;28;20039;-72
2022/06/28 02:10:18;;;;;;;18.13;15.20;;;;;;;;;;5109337;28;20118;-72
2022/06/28 02:12:44;;;;;;;15.15;13.45;;;;;;;;;;5111149;28;20119;-72
2022/06/28 02:15:10;;;;;;;14.27;12.77;;;;;;;;;;5110845;28;20126;-72
2022/06/28 02:17:36;;;;;;;15.77;13.63;;;;;;;;;;5093993;28;20044;-72
2022/06/28 02:20:02;;;;;;;16.88;15.07;;;;;;;;;;5105399;28;20386;-72
2022/06/28 02:22:28;;;;;;;16.98;14.45;;;;;;;;;;5110756;28;20493;-72
2022/06/28 02:24:54;;;;;;;17.90;14.82;;;;;;;;;;5094025;28;20143;-71
2022/06/28 02:27:20;;;;;;;16.50;14.65;;;;;;;;;;5108850;28;20504;-71
2022/06/28 02:29:47;;;;;;;15.30;13.50;;;;;;;;;;5110846;28;20088;-71
2022/06/28 02:32:13;;;;;;;13.80;12.35;;;;;;;;;;5110373;28;20046;-72
2022/06/28 02:40:22;;;;;;;15.80;13.85;;;;;;;;;;5111897;28;20142;-72
2022/06/28 02:42:48;;;;;;;16.25;13.00;;;;;;;;;;5111010;28;20085;-71
2022/06/28 02:45:14;;;;;;;14.98;12.63;;;;;;;;;;5110510;28;20044;-72
2022/06/28 02:47:40;;;;;;;18.05;14.23;;;;;;;;;;5113568;28;20044;-72
2022/06/28 02:50:07;;;;;;;20.55;15.32;;;;;;;;;;5116578;28;20417;-71
2022/06/28 02:52:33;;;;;;;16.42;13.70;;;;;;;;;;5113442;28;20489;-72
2022/06/28 02:54:59;;;;;;;16.38;14.68;;;;;;;;;;5113024;28;20075;-71
2022/06/28 02:57:25;;;;;;;17.67;13.57;;;;;;;;;;5116497;28;20050;-71
2022/06/28 02:59:51;;;;;;;17.35;14.77;;;;;;;;;;5116577;28;20134;-71
2022/06/28 03:02:18;;;;;;;16.60;14.52;;;;;;;;;;5104432;28;20131;-71
2022/06/28 03:04:44;;;;;;;16.17;14.40;;;;;;;;;;5109704;28;20047;-72
2022/06/28 03:07:10;;;;;;;17.48;14.43;;;;;;;;;;5114658;28;20516;-71
2022/06/28 03:09:36;;;;;;;18.60;14.38;;;;;;;;;;5114354;28;20058;-71
2022/06/28 03:12:04;;;;;;;16.75;14.40;;;;;;;;;;5095280;28;20501;-72
2022/06/28 03:14:31;;;;;;;19.08;15.98;;;;;;;;;;5114268;28;20043;-72
2022/06/28 03:16:57;;;;;;;17.38;14.45;;;;;;;;;;5114885;28;20401;-70
2022/06/28 03:19:23;;;;;;;17.73;14.20;;;;;;;;;;5115761;28;20048;-71
2022/06/28 03:21:49;;;;;;;16.77;15.00;;;;;;;;;;5114442;28;20323;-71
2022/06/28 03:24:15;;;;;;;19.77;14.65;;;;;;;;;;5114122;28;20036;-71
2022/06/28 03:26:41;;;;;;;18.10;14.43;;;;;;;;;;5114949;28;20039;-72
2022/06/28 03:29:07;;;;;;;18.73;14.68;;;;;;;;;;5116489;28;20047;-72
2022/06/28 03:31:33;;;;;;;17.83;14.45;;;;;;;;;;5089840;28;20055;-71
2022/06/28 03:33:59;;;;;;;16.75;14.95;;;;;;;;;;5116217;28;20052;-72
2022/06/28 03:36:25;;;;;;;16.67;13.55;;;;;;;;;;5111384;28;20040;-72
2022/06/28 03:38:51;;;;;;;16.40;14.68;;;;;;;;;;5109858;28;20051;-71
2022/06/28 03:41:22;;;;;;;19.15;15.50;;;;;;;;;;5113119;28;20039;-72
2022/06/28 03:43:52;;;;;;;16.63;14.30;;;;;;;;;;5112662;28;20051;-71
2022/06/28 03:46:18;;;;;;;17.95;14.55;;;;;;;;;;5111189;28;20043;-71
2022/06/28 03:48:45;;;;;;;17.30;14.55;;;;;;;;;;5115854;28;20108;-71
2022/06/28 03:51:11;;;;;;;18.02;14.55;;;;;;;;;;5114424;28;20035;-71
2022/06/28 03:53:37;;;;;;;18.23;15.05;;;;;;;;;;5094476;28;20088;-71
2022/06/28 03:56:04;;;;;;;17.30;15.50;;;;;;;;;;5115501;28;20059;-71
2022/06/28 03:58:30;;;;;;;17.80;15.70;;;;;;;;;;5114831;28;20058;-72
2022/06/28 04:00:56;;;;;;;18.33;16.48;;;;;;;;;;5114155;28;20074;-72
2022/06/28 04:03:22;;;;;;;18.65;16.30;;;;;;;;;;5113874;28;20048;-72
2022/06/28 04:05:48;;;;;;;17.65;15.75;;;;;;;;;;5094770;28;20139;-71
2022/06/28 04:08:16;;;;;;;19.95;16.35;;;;;;;;;;5110207;28;20047;-71
2022/06/28 04:10:42;;;;;;;22.02;16.63;;;;;;;;;;5108274;28;20035;-72
2022/06/28 04:13:08;;;;;;;19.95;17.13;;;;;;;;;;5114861;28;20122;-72
2022/06/28 04:15:35;;;;;;;20.05;16.15;;;;;;;;;;5111824;28;20044;-71
2022/06/28 04:18:01;;;;;;;15.95;14.32;;;;;;;;;;5114082;28;20047;-72
2022/06/28 04:20:27;;;;;;;16.83;14.40;;;;;;;;;;5114925;28;20048;-72
2022/06/28 04:22:53;;;;;;;16.17;14.48;;;;;;;;;;5114139;28;20048;-72
2022/06/28 04:25:19;;;;;;;14.65;13.15;;;;;;;;;;5114979;28;20497;-72
2022/06/28 04:27:45;;;;;;;15.10;13.60;;;;;;;;;;5111444;28;20044;-72
2022/06/28 04:30:11;;;;;;;13.55;12.23;;;;;;;;;;5112413;28;20047;-72
2022/06/28 04:32:38;;;;;;;13.43;12.00;;;;;;;;;;5110665;28;20443;-71
2022/06/28 04:35:04;;;;;;;14.13;11.95;;;;;;;;;;5113451;28;20488;-72
2022/06/28 04:37:30;;;;;;;11.32;10.23;;;;;;;;;;5114079;28;20401;-72
2022/06/28 04:39:56;;;;;;;14.52;11.93;;;;;;;;;;5114581;28;20043;-72
2022/06/28 04:42:22;;;;;;;15.13;11.57;;;;;;;;;;5110203;28;20044;-71
2022/06/28 04:44:48;;;;;;;14.35;12.55;;;;;;;;;;5093029;28;20505;-71
2022/06/28 04:47:14;;;;;;;18.88;12.35;;;;;;;;;;5104640;28;20046;-72
2022/06/28 04:49:40;;;;;;;14.30;12.90;;;;;;;;;;5114982;28;20047;-72
2022/06/28 04:52:06;;;;;;;15.07;13.57;;;;;;;;;;5114227;28;20039;-71
2022/06/28 04:54:33;;;;;;;15.82;13.63;;;;;;;;;;5114469;28;20072;-72
2022/06/28 04:56:59;;;;;;;14.77;13.23;;;;;;;;;;5110570;28;20128;-71
2022/06/28 04:59:25;;;;;;;15.77;13.48;;;;;;;;;;5112764;28;20082;-71
2022/06/28 05:01:51;;;;;;;14.95;13.05;;;;;;;;;;5110148;28;20071;-72
2022/06/28 05:04:17;;;;;;;15.73;14.13;;;;;;;;;;5112886;28;20048;-72
2022/06/28 05:06:43;;;;;;;16.65;14.20;;;;;;;;;;5112361;28;20036;-72
2022/06/28 05:09:09;;;;;;;14.70;13.13;;;;;;;;;;5093881;28;20041;-72
2022/06/28 05:11:35;;;;;;;16.25;14.52;;;;;;;;;;5110430;28;20084;-71
2022/06/28 05:14:01;;;;;;;14.55;13.05;;;;;;;;;;5098835;28;20122;-72
2022/06/28 05:16:27;;;;;;;16.08;13.50;;;;;;;;;;5113779;28;20097;-72
2022/06/28 05:18:53;;;;;;;17.65;13.57;;;;;;;;;;5113922;28;20047;-71
2022/06/28 05:21:19;;;;;;;14.40;12.00;;;;;;;;;;5094725;28;20082;-71
2022/06/28 05:23:45;;;;;;;15.20;11.90;;;;;;;;;;5094110;28;20112;-70
2022/06/28 05:26:12;;;;;;;15.05;12.65;;;;;;;;;;5112309;28;20051;-71
2022/06/28 05:28:38;;;;;;;16.90;12.85;;;;;;;;;;5113807;28;20043;-71
2022/06/28 05:31:04;;;;;;;14.93;12.60;;;;;;;;;;5105470;28;20112;-71
2022/06/28 05:33:30;;;;;;;14.02;11.45;;;;;;;;;;5113213;28;20039;-71
2022/06/28 05:35:56;;;;;;;14.35;11.00;;;;;;;;;;5113279;28;20046;-71
2022/06/28 05:38:22;;;;;;;14.82;10.30;;;;;;;;;;5113116;28;20071;-72
2022/06/28 05:40:48;;;;;;;12.93;9.38;;;;;;;;;;5112076;28;20070;-71
2022/06/28 05:43:15;;;;;;;11.93;9.00;;;;;;;;;;5112478;28;20489;-71
2022/06/28 05:45:41;;;;;;;14.00;9.57;;;;;;;;;;5112832;28;20558;-71
2022/06/28 05:48:07;;;;;;;11.60;8.93;;;;;;;;;;5082567;28;20052;-71
2022/06/28 05:50:33;;;;;;;13.98;8.82;;;;;;;;;;5110595;28;20047;-71
2022/06/28 05:52:59;;;;;;;15.13;8.57;;;;;;;;;;5091458;28;20046;-72
2022/06/28 05:55:25;;;;;;;14.13;8.30;;;;;;;;;;5095555;28;20056;-72
2022/06/28 05:57:51;;;;;;;14.55;8.00;;;;;;;;;;5106842;28;20040;-72
2022/06/28 06:00:17;;;;;;;14.38;8.10;;;;;;;;;;5106681;28;20092;-72
2022/06/28 06:02:44;;;;;;;10.73;6.93;;;;;;;;;;5112029;28;20043;-72
2022/06/28 06:05:11;;;;;;;11.10;7.70;;;;;;;;;;5108294;28;20054;-72
2022/06/28 06:07:37;;;;;;;9.20;6.55;;;;;;;;;;5110751;28;20038;-72
2022/06/28 06:10:03;;;;;;;11.93;6.78;;;;;;;;;;5110740;28;20052;-72
2022/06/28 06:12:30;;;;;;;11.90;6.32;;;;;;;;;;5111029;28;20040;-71
2022/06/28 06:14:58;;;;;;;10.15;6.07;;;;;;;;;;5109940;28;20044;-72
2022/06/28 06:17:24;;;;;;;11.40;5.93;;;;;;;;;;5112819;28;20040;-72
2022/06/28 06:19:50;;;;;;;12.50;5.80;;;;;;;;;;5111533;28;20421;-71
2022/06/28 06:22:16;;;;;;;11.93;6.18;;;;;;;;;;5111997;28;20051;-71
2022/06/28 06:24:42;;;;;;;9.40;6.10;;;;;;;;;;5112216;28;20123;-72
2022/06/28 06:27:08;;;;;;;11.23;6.07;;;;;;;;;;5110554;28;20134;-71
2022/06/28 06:29:35;;;;;;;9.55;5.63;;;;;;;;;;5112063;28;20131;-71
2022/06/28 06:32:01;;;;;;;8.82;5.45;;;;;;;;;;5101838;28;20050;-72
2022/06/28 06:34:27;;;;;;;10.77;6.15;;;;;;;;;;5113226;28;20122;-72
2022/06/28 06:36:53;;;;;;;11.30;5.82;;;;;;;;;;5108923;28;20093;-72
2022/06/28 06:39:19;;;;;;;8.48;5.38;;;;;;;;;;5094659;28;20528;-72
2022/06/28 06:41:46;;;;;;;9.88;5.50;;;;;;;;;;5107684;28;20092;-72
2022/06/28 06:44:12;;;;;;;9.73;4.82;;;;;;;;;;5106274;28;20092;-73
2022/06/28 06:46:38;;;;;;;10.10;5.47;;;;;;;;;;5097477;28;20044;-71
2022/06/28 06:49:04;;;;;;;10.20;4.90;;;;;;;;;;5112078;28;20064;-72
2022/06/28 06:51:30;;;;;;;10.40;5.40;;;;;;;;;;5112276;28;20051;-72
2022/06/28 06:53:57;;;;;;;9.20;5.03;;;;;;;;;;5112943;28;20050;-73
2022/06/28 06:56:23;;;;;;;9.73;4.50;;;;;;;;;;5110110;28;20044;-73
2022/06/28 06:58:49;;;;;;;11.27;5.00;;;;;;;;;;5112316;28;20062;-72
2022/06/28 07:01:16;;;;;;;9.95;4.60;;;;;;;;;;5113944;28;20400;-77
2022/06/28 07:03:44;;;;;;;10.00;4.25;;;;;;;;;;5111951;28;20039;-72
2022/06/28 07:06:13;;;;;;;10.45;4.13;;;;;;;;;;5113208;28;20048;-71
2022/06/28 07:08:40;;;;;;;11.27;4.80;;;;;;;;;;5108430;28;20051;-72
2022/06/28 07:11:06;;;;;;;9.32;3.80;;;;;;;;;;5110804;28;20035;-72
2022/06/28 07:13:32;;;;;;;8.40;4.05;;;;;;;;;;5111332;28;20032;-72
2022/06/28 07:15:58;;;;;;;8.60;4.35;;;;;;;;;;5110231;28;20051;-73
2022/06/28 07:18:24;;;;;;;9.05;3.97;;;;;;;;;;5108578;28;20048;-73
2022/06/28 07:20:52;;;;;;;10.77;4.55;;;;;;;;;;5093258;28;20048;-73
2022/06/28 07:23:18;;;;;;;8.77;4.30;;;;;;;;;;5107285;28;20051;-72
2022/06/28 07:25:44;;;;;;;8.10;4.00;;;;;;;;;;5096662;28;20385;-71
2022/06/28 07:28:10;;;;;;;8.20;3.83;;;;;;;;;;5112359;28;20048;-72
2022/06/28 07:30:37;;;;;;;9.30;4.60;;;;;;;;;;5092472;28;20048;-71
2022/06/28 07:33:03;;;;;;;9.93;4.32;;;;;;;;;;5111634;28;20116;-72
2022/06/28 07:35:29;;;;;;;8.88;4.05;;;;;;;;;;5114072;27;20509;-72
2022/06/28 07:37:55;;;;;;;10.85;4.40;;;;;;;;;;5115301;28;20124;-72
2022/06/28 07:40:21;;;;;;;9.73;4.30;;;;;;;;;;5111991;27;20122;-72
2022/06/28 07:42:47;;;;;;;10.15;4.35;;;;;;;;;;5094594;28;20100;-72
2022/06/28 07:45:14;;;;;;;9.48;3.80;;;;;;;;;;5095692;28;20052;-72
2022/06/28 07:47:40;;;;;;;8.40;3.70;;;;;;;;;;5113577;28;20088;-72
2022/06/28 07:52:51;;;;;;;7.15;2.95;;;;;;;;;;5102903;27;20047;-72
2022/06/28 07:55:17;;;;;;;7.50;3.10;;;;;;;;;;5097148;28;20075;-74
2022/06/28 07:57:43;;;;;;;9.75;3.67;;;;;;;;;;5114020;28;20055;-72
2022/06/28 08:00:10;;;;;;;7.80;3.03;;;;;;;;;;5088584;28;20050;-73
2022/06/28 08:02:36;;;;;;;8.35;3.30;;;;;;;;;;5110975;27;20038;-73
2022/06/28 08:05:03;;;;;;;6.35;3.10;;;;;;;;;;5112647;27;20238;-73
2022/06/28 08:07:29;;;;;;;7.90;3.25;;;;;;;;;;5111520;28;20093;-73
2022/06/28 08:09:55;;;;;;;10.23;2.90;;;;;;;;;;5111264;28;20043;-72
2022/06/28 08:12:21;;;;;;;8.77;3.00;;;;;;;;;;5115895;28;20042;-72
2022/06/28 08:14:47;;;;;;;9.45;2.92;;;;;;;;;;5113369;28;20394;-71
2022/06/28 08:17:13;;;;;;;9.43;2.35;;;;;;;;;;5093266;28;20501;-71
2022/06/28 08:19:40;;;;;;;8.05;2.38;;;;;;;;;;5130285;27;20416;-72
2022/06/28 08:22:05;;;;;;;8.90;2.83;;;;;;;;;;5118217;27;20069;-71
2022/06/28 08:24:32;;;;;;;8.23;2.40;;;;;;;;;;5112138;28;20036;-71
2022/06/28 08:26:58;;;;;;;11.40;2.70;;;;;;;;;;5115627;28;20051;-72
2022/06/28 08:29:24;;;;;;;9.93;2.17;;;;;;;;;;5119041;27;20039;-72
2022/06/28 08:31:50;;;;;;;8.15;1.92;;;;;;;;;;5135935;27;20046;-71
2022/06/28 08:34:16;;;;;;;8.70;2.20;;;;;;;;;;5127517;27;20055;-71
2022/06/28 08:36:42;;;;;;;8.02;2.58;;;;;;;;;;5115057;28;20429;-72
2022/06/28 08:39:08;;;;;;;9.43;2.58;;;;;;;;;;5115258;28;20047;-73
2022/06/28 08:41:35;;;;;;;7.97;1.70;;;;;;;;;;5114052;28;20105;-71
2022/06/28 08:44:01;;;;;;;8.65;1.90;;;;;;;;;;5135368;27;20095;-72
2022/06/28 08:46:28;;;;;;;8.50;2.10;;;;;;;;;;5134837;27;20058;-73
2022/06/28 08:49:03;;;;;;;7.18;2.05;;;;;;;;;;5135218;27;20062;-73
2022/06/28 08:51:31;;;;;;;8.73;2.13;;;;;;;;;;5135458;27;20039;-72
2022/06/28 08:53:59;;;;;;;7.82;1.98;;;;;;;;;;5135715;27;20099;-72
2022/06/28 08:56:25;;;;;;;6.35;2.00;;;;;;;;;;5132139;27;20090;-73
2022/06/28 08:58:52;;;;;;;8.30;1.70;;;;;;;;;;5135208;27;20036;-72
2022/06/28 09:01:18;;;;;;;5.88;1.52;;;;;;;;;;5135431;27;20050;-72
2022/06/28 09:03:46;;;;;;;6.82;1.60;;;;;;;;;;5133377;27;20050;-73
2022/06/28 09:06:12;;;;;;;7.65;2.03;;;;;;;;;;5111570;28;20071;-72
2022/06/28 09:08:40;;;;;;;7.47;2.10;;;;;;;;;;5104246;27;20043;-72
2022/06/28 09:11:06;;;;;;;6.70;1.67;;;;;;;;;;5134942;27;20055;-72
2022/06/28 09:13:35;;;;;;;8.77;1.88;;;;;;;;;;5135039;27;20096;-72
2022/06/28 09:16:01;;;;;;;8.60;2.20;;;;;;;;;;5134995;27;20050;-72
2022/06/28 09:18:43;;;;;;;8.93;2.17;;;;;;;;;;5134806;27;20531;-72
2022/06/28 09:21:10;;;;;;;6.05;1.65;;;;;;;;;;5127569;27;20097;-73
2022/06/28 09:23:37;;;;;;;8.82;1.75;;;;;;;;;;5102849;28;20089;-70
2022/06/28 09:26:07;;;;;;;8.40;1.80;;;;;;;;;;5094111;28;20047;-72
2022/06/28 09:28:34;;;;;;;9.10;1.98;;;;;;;;;;5094033;28;20048;-72
2022/06/28 09:31:26;;;;;;;8.20;1.70;;;;;;;;;;5093888;28;20051;-71
2022/06/28 09:34:04;;;;;;;6.75;1.63;;;;;;;;;;5095881;28;20044;-72
2022/06/28 09:36:32;;;;;;;6.68;1.33;;;;;;;;;;5113727;28;20056;-72
2022/06/28 09:39:01;;;;;;;5.82;1.60;;;;;;;;;;5114070;28;20046;-73
2022/06/28 09:41:28;;;;;;;6.70;1.70;;;;;;;;;;5095593;28;20079;-73
2022/06/28 09:44:02;;;;;;;7.28;1.33;;;;;;;;;;5113234;28;20039;-71
2022/06/28 09:46:30;;;;;;;5.60;1.50;;;;;;;;;;5113793;28;20043;-71
2022/06/28 09:49:03;;;;;;;6.85;1.40;;;;;;;;;;5113610;28;20052;-72
2022/06/28 09:51:31;;;;;;;7.07;1.52;;;;;;;;;;5113740;28;20094;-73
2022/06/28 09:53:59;;;;;;;5.72;1.48;;;;;;;;;;5113803;28;20039;-73
2022/06/28 09:56:27;;;;;;;5.68;1.20;;;;;;;;;;5113744;28;20048;-72
2022/06/28 09:58:53;;;;;;;7.82;1.25;;;;;;;;;;5112790;28;20040;-71
2022/06/28 10:01:20;;;;;;;4.90;1.23;;;;;;;;;;5113422;28;20051;-72
2022/06/28 10:03:48;;;;;;;6.53;1.30;;;;;;;;;;5112963;28;20070;-71
2022/06/28 10:06:15;;;;;;;5.47;1.15;;;;;;;;;;5113661;28;20043;-71
2022/06/28 10:08:41;;;;;;;6.72;1.40;;;;;;;;;;5113568;28;20124;-71
2022/06/28 10:11:07;;;;;;;4.65;1.20;;;;;;;;;;5113505;28;20055;-71
2022/06/28 10:16:32;;;;;;;5.45;1.30;;;;;;;;;;5134054;27;20084;-71
2022/06/28 10:18:58;;;;;;;6.45;1.02;;;;;;;;;;5133827;27;20513;-71
2022/06/28 10:22:07;;;;;;;5.10;1.23;;;;;;;;;;5133875;27;20047;-72
2022/06/28 10:24:50;;;;;;;5.53;1.10;;;;;;;;;;5030433;28;20500;-72
2022/06/28 10:27:17;;;;;;;7.30;1.40;;;;;;;;;;5019409;28;20500;-72
2022/06/28 10:30:05;;;;;;;8.15;1.45;;;;;;;;;;5024419;28;20060;-71
2022/06/28 10:32:44;;;;;;;6.43;1.40;;;;;;;;;;5016063;28;20092;-71
2022/06/28 10:35:11;;;;;;;7.13;1.17;;;;;;;;;;5009819;28;20089;-71
2022/06/28 10:37:57;;;;;;;7.75;1.40;;;;;;;;;;4992246;28;20045;-71
2022/06/28 10:40:22;;;;;;;5.15;1.10;;;;;;;;;;5006212;28;20042;-71
2022/06/28 10:42:52;;;;;;;5.25;1.42;;;;;;;;;;5010024;28;20612;-71
2022/06/28 10:45:21;;;;;;;6.85;1.42;;;;;;;;;;5013941;28;20461;-71
2022/06/28 10:48:09;;;;;;;4.28;0.95;;;;;;;;;;5030163;28;20053;-71
2022/06/28 10:50:54;;;;;;;6.22;1.50;;;;;;;;;;5030351;28;20054;-71
2022/06/28 10:53:20;;;;;;;5.68;1.13;;;;;;;;;;5030442;28;20506;-70
2022/06/28 10:56:06;;;;;;;8.10;1.30;;;;;;;;;;5104704;28;20516;-71
2022/06/28 10:58:32;;;;;;;5.43;1.20;;;;;;;;;;5100500;28;20071;-71
2022/06/28 11:00:58;;;;;;;6.43;1.40;;;;;;;;;;5092835;28;20387;-71
2022/06/28 11:03:24;;;;;;;8.13;1.30;;;;;;;;;;5092421;28;20482;-71
2022/06/28 11:05:54;;;;;;;7.53;1.50;;;;;;;;;;5074380;28;20044;-70
2022/06/28 11:08:38;;;;;;;6.20;1.30;;;;;;;;;;5102354;28;20123;-71
2022/06/28 11:11:05;;;;;;;7.05;1.35;;;;;;;;;;5096657;28;20048;-70
2022/06/28 11:13:31;;;;;;;5.88;1.40;;;;;;;;;;5096639;28;20105;-71
2022/06/28 11:15:57;;;;;;;6.78;1.30;;;;;;;;;;5096362;28;20405;-71
2022/06/28 11:18:24;;;;;;;4.97;1.13;;;;;;;;;;5096287;28;20052;-71
2022/06/28 11:20:51;;;;;;;5.03;1.05;;;;;;;;;;5096562;28;20040;-71
2022/06/28 11:23:30;;;;;;;6.20;1.33;;;;;;;;;;5097432;27;20040;-71
2022/06/28 11:28:59;;;;;;;5.60;1.20;;;;;;;;;;5137407;27;20122;-70
2022/06/28 11:31:25;;;;;;;5.72;1.20;;;;;;;;;;5129681;27;20059;-71
2022/06/28 11:33:51;;;;;;;5.40;1.27;;;;;;;;;;5116127;28;20044;-70
2022/06/28 11:36:30;;;;;;;6.10;1.35;;;;;;;;;;5116356;28;20393;-72
2022/06/28 11:39:01;;;;;;;5.47;1.20;;;;;;;;;;5097809;28;20454;-71
2022/06/28 11:41:31;;;;;;;7.03;1.42;;;;;;;;;;5116339;28;20122;-70
2022/06/28 11:44:02;;;;;;;5.65;1.40;;;;;;;;;;5116506;28;20055;-71
2022/06/28 11:46:28;;;;;;;5.43;1.30;;;;;;;;;;5116478;28;20067;-70
2022/06/28 11:48:55;;;;;;;5.13;1.10;;;;;;;;;;5115984;28;20358;-70
2022/06/28 11:51:25;;;;;;;7.57;1.20;;;;;;;;;;5121512;27;20050;-70
2022/06/28 11:53:51;;;;;;;5.93;1.40;;;;;;;;;;5136601;27;20098;-72
2022/06/28 11:56:17;;;;;;;6.00;1.38;;;;;;;;;;5136497;27;20043;-71
2022/06/28 11:58:45;;;;;;;6.95;1.23;;;;;;;;;;5136633;27;20059;-70
2022/06/28 12:01:12;;;;;;;4.93;1.20;;;;;;;;;;5131202;27;20051;-69
2022/06/28 12:03:41;;;;;;;7.47;1.35;;;;;;;;;;5115954;28;20054;-70
2022/06/28 12:06:08;;;;;;;6.18;1.27;;;;;;;;;;5123829;27;20045;-69
2022/06/28 12:08:43;;;;;;;5.07;1.05;;;;;;;;;;5136202;27;20078;-70
2022/06/28 12:11:24;;;;;;;5.55;1.48;;;;;;;;;;5127938;27;20074;-71
2022/06/28 12:13:54;;;;;;;5.55;1.50;;;;;;;;;;5115871;28;20107;-70
2022/06/28 12:16:20;;;;;;;3.77;1.00;;;;;;;;;;5115740;28;20043;-69
2022/06/28 12:18:56;;;;;;;6.82;1.30;;;;;;;;;;5115651;28;20051;-70
2022/06/28 12:21:22;;;;;;;6.55;1.25;;;;;;;;;;5114733;28;20047;-70
2022/06/28 12:23:52;;;;;;;7.07;1.40;;;;;;;;;;5115648;28;20203;-71
2022/06/28 12:26:18;;;;;;;6.40;1.30;;;;;;;;;;5113653;27;20051;-70
2022/06/28 12:28:45;;;;;;;4.80;1.00;;;;;;;;;;5115562;28;20086;-71
2022/06/28 12:31:11;;;;;;;7.00;1.58;;;;;;;;;;5114447;28;20039;-72
2022/06/28 12:33:37;;;;;;;6.72;1.27;;;;;;;;;;5115384;28;20055;-72
2022/06/28 12:36:03;;;;;;;5.47;1.20;;;;;;;;;;5115378;28;20397;-71
2022/06/28 12:38:29;;;;;;;6.28;1.75;;;;;;;;;;5115418;28;20048;-71
2022/06/28 12:40:56;;;;;;;5.43;1.17;;;;;;;;;;5115247;28;20047;-71
2022/06/28 12:43:22;;;;;;;8.27;1.80;;;;;;;;;;5114626;28;20109;-71
2022/06/28 12:45:48;;;;;;;5.70;1.40;;;;;;;;;;5113855;27;20084;-71
2022/06/28 12:48:14;;;;;;;5.97;1.20;;;;;;;;;;5114898;28;20062;-71
2022/06/28 12:50:41;;;;;;;6.65;1.45;;;;;;;;;;5115025;28;20039;-71
2022/06/28 12:53:08;;;;;;;6.25;1.40;;;;;;;;;;5114951;28;20036;-71
2022/06/28 12:55:34;;;;;;;5.88;1.30;;;;;;;;;;5114898;28;20051;-71
2022/06/28 12:58:00;;;;;;;7.18;1.48;;;;;;;;;;5096738;28;20048;-71
2022/06/28 13:00:27;;;;;;;13.68;1.30;;;;;;;;;;5107401;27;20375;-71
2022/06/28 13:02:53;;;;;;;6.55;1.30;;;;;;;;;;5108017;28;20051;-73
2022/06/28 13:05:21;;;;;;;4.68;1.10;;;;;;;;;;5113832;28;20047;-74
2022/06/28 13:07:47;;;;;;;4.10;1.20;;;;;;;;;;5113586;28;20039;-73
2022/06/28 13:10:13;;;;;;;5.35;1.30;;;;;;;;;;5110473;28;20648;-73
2022/06/28 13:12:40;;;;;;;6.97;1.45;;;;;;;;;;5115070;27;20047;-72
2022/06/28 13:15:06;;;;;;;4.95;1.33;;;;;;;;;;5098439;28;20493;-73
2022/06/28 13:17:32;;;;;;;6.72;1.20;;;;;;;;;;5115184;27;20053;-73
2022/06/28 13:19:59;;;;;;;8.15;1.30;;;;;;;;;;5109001;27;20044;-73
2022/06/28 13:22:26;;;;;;;4.53;1.17;;;;;;;;;;5105837;28;20391;-72
2022/06/28 13:24:53;;;;;;;5.32;1.13;;;;;;;;;;5106274;28;20501;-73
2022/06/28 13:27:19;;;;;;;8.18;1.30;;;;;;;;;;5106183;28;20047;-72
2022/06/28 13:29:45;;;;;;;6.18;1.25;;;;;;;;;;5105834;28;20038;-72
2022/06/28 13:32:11;;;;;;;4.90;1.15;;;;;;;;;;5103377;27;20039;-72
2022/06/28 13:34:37;;;;;;;5.43;1.30;;;;;;;;;;5110975;27;20486;-73
2022/06/28 13:37:03;;;;;;;6.20;1.35;;;;;;;;;;5109531;28;20050;-71
2022/06/28 13:39:29;;;;;;;6.47;1.30;;;;;;;;;;5108282;27;20043;-72
2022/06/28 13:41:55;;;;;;;6.15;1.30;;;;;;;;;;5110805;28;20056;-71
2022/06/28 13:44:21;;;;;;;6.85;1.50;;;;;;;;;;5110684;28;20047;-73
2022/06/28 13:46:47;;;;;;;8.75;1.50;;;;;;;;;;5111271;28;20043;-73
2022/06/28 13:49:13;;;;;;;5.85;1.10;;;;;;;;;;5117979;27;20055;-72
2022/06/28 13:51:40;;;;;;;4.35;1.02;;;;;;;;;;5112296;28;20043;-73
2022/06/28 13:54:06;;;;;;;5.80;1.23;;;;;;;;;;5114072;28;20044;-73
2022/06/28 13:56:32;;;;;;;6.05;1.20;;;;;;;;;;5106292;28;20071;-72
2022/06/28 13:58:58;;;;;;;7.82;1.55;;;;;;;;;;5093514;28;20055;-72
2022/06/28 14:01:24;;;;;;;6.15;1.33;;;;;;;;;;5103371;28;20539;-72
2022/06/28 14:03:50;;;;;;;5.63;1.33;;;;;;;;;;5108556;28;20130;-72
2022/06/28 14:06:16;;;;;;;6.00;1.17;;;;;;;;;;5113576;28;20122;-71
2022/06/28 14:08:42;;;;;;;6.22;1.65;;;;;;;;;;5112436;28;20046;-72
2022/06/28 14:11:08;;;;;;;5.68;1.20;;;;;;;;;;5112792;28;20062;-72
2022/06/28 14:13:34;;;;;;;7.95;1.25;;;;;;;;;;5111479;28;20039;-72
2022/06/28 14:16:01;;;;;;;6.57;1.27;;;;;;;;;;5110656;28;20482;-72
2022/06/28 14:18:27;;;;;;;6.30;1.30;;;;;;;;;;5103332;28;20554;-72
2022/06/28 14:20:53;;;;;;;6.97;1.30;;;;;;;;;;5105435;28;20048;-72
2022/06/28 14:23:19;;;;;;;4.13;1.02;;;;;;;;;;5069040;28;20040;-72
2022/06/28 14:25:45;;;;;;;5.10;1.00;;;;;;;;;;5107012;28;20043;-71
2022/06/28 14:28:11;;;;;;;5.70;1.20;;;;;;;;;;5072673;28;20052;-72
2022/06/28 14:30:38;;;;;;;6.13;1.13;;;;;;;;;;5110556;28;20044;-73
2022/06/28 14:33:04;;;;;;;7.70;1.27;;;;;;;;;;5112105;28;20040;-72
2022/06/28 14:35:34;;;;;;;5.10;1.13;;;;;;;;;;5110377;28;20104;-72
2022/06/28 14:38:00;;;;;;;6.57;1.40;;;;;;;;;;5123617;28;20054;-72
2022/06/28 14:40:26;;;;;;;7.35;1.40;;;;;;;;;;5106538;28;20123;-72
2022/06/28 14:42:52;;;;;;;8.23;1.50;;;;;;;;;;5101819;28;20119;-73
2022/06/28 14:45:18;;;;;;;6.13;1.23;;;;;;;;;;5113587;28;20086;-72
2022/06/28 14:47:49;;;;;;;4.80;1.02;;;;;;;;;;5116197;28;20043;-73